sensor_id;sensor_type;location;lat;lon;timestamp;pressure;altitude;pressure_sealevel;temperature;humidity
39699;BME280;25372;50.582;12.250;2024-02-26T00:01:12;98491.28;;;-1.05;100.00
39699;BME280;25372;50.582;12.250;2024-02-26T00:11:35;98482.00;;;-1.09;100.00
39699;BME280;25372;50.582;12.250;2024-02-26T00:21:56;98484.56;;;-1.09;100.00
39699;BME280;25372;50.582;12.250;2024-02-26T00:32:18;98470.75;;;-0.85;100.00
39699;BME280;25372;50.582;12.250;2024-02-26T00:42:39;98467.28;;;-0.83;100.00
39699;BME280;25372;50.582;12.250;2024-02-26T00:53:06;98453.13;;;-0.95;100.00
39699;BME280;25372;50.582;12.250;2024-02-26T01:03:28;98443.94;;;-1.25;100.00
39699;BME280;25372;50.582;12.250;2024-02-26T01:13:51;98436.81;;;-0.96;100.00
39699;BME280;25372;50.582;12.250;2024-02-26T01:24:16;98429.63;;;-1.10;100.00
39699;BME280;25372;50.582;12.250;2024-02-26T01:34:38;98421.78;;;-1.07;100.00
39699;BME280;25372;50.582;12.250;2024-02-26T01:44:59;98418.25;;;-1.50;100.00
39699;BME280;25372;50.582;12.250;2024-02-26T01:55:22;98401.44;;;-1.61;100.00
39699;BME280;25372;50.582;12.250;2024-02-26T02:05:45;98397.59;;;-1.49;100.00
39699;BME280;25372;50.582;12.250;2024-02-26T02:16:07;98392.16;;;-1.65;100.00
39699;BME280;25372;50.582;12.250;2024-02-26T02:26:30;98382.97;;;-1.72;100.00
39699;BME280;25372;50.582;12.250;2024-02-26T02:36:51;98379.81;;;-1.80;100.00
39699;BME280;25372;50.582;12.250;2024-02-26T02:47:14;98375.75;;;-1.86;100.00
39699;BME280;25372;50.582;12.250;2024-02-26T02:57:35;98380.69;;;-1.56;100.00
39699;BME280;25372;50.582;12.250;2024-02-26T03:08:02;98384.03;;;-1.78;100.00
39699;BME280;25372;50.582;12.250;2024-02-26T03:18:23;98390.91;;;-1.78;100.00
39699;BME280;25372;50.582;12.250;2024-02-26T03:28:46;98398.13;;;-1.64;100.00
39699;BME280;25372;50.582;12.250;2024-02-26T03:39:07;98409.94;;;-1.83;100.00
39699;BME280;25372;50.582;12.250;2024-02-26T03:49:30;98412.16;;;-1.97;100.00
39699;BME280;25372;50.582;12.250;2024-02-26T03:59:51;98421.25;;;-1.87;100.00
39699;BME280;25372;50.582;12.250;2024-02-26T04:10:14;98430.78;;;-1.65;100.00
39699;BME280;25372;50.582;12.250;2024-02-26T04:20:35;98428.06;;;-1.86;100.00
39699;BME280;25372;50.582;12.250;2024-02-26T04:30:57;98418.28;;;-2.01;100.00
39699;BME280;25372;50.582;12.250;2024-02-26T04:41:18;98400.47;;;-2.31;100.00
39699;BME280;25372;50.582;12.250;2024-02-26T04:51:40;98425.56;;;-1.63;100.00
39699;BME280;25372;50.582;12.250;2024-02-26T05:02:01;98435.63;;;-2.06;100.00
39699;BME280;25372;50.582;12.250;2024-02-26T05:12:24;98434.75;;;-2.05;100.00
39699;BME280;25372;50.582;12.250;2024-02-26T05:22:45;98447.41;;;-1.99;100.00
39699;BME280;25372;50.582;12.250;2024-02-26T05:33:08;98469.41;;;-2.16;100.00
39699;BME280;25372;50.582;12.250;2024-02-26T05:43:29;98459.97;;;-2.15;100.00
39699;BME280;25372;50.582;12.250;2024-02-26T05:53:51;98468.63;;;-2.18;100.00
39699;BME280;25372;50.582;12.250;2024-02-26T06:04:14;98466.72;;;-2.13;100.00
39699;BME280;25372;50.582;12.250;2024-02-26T06:14:38;98469.34;;;-1.89;100.00
39699;BME280;25372;50.582;12.250;2024-02-26T06:24:59;98481.06;;;-1.31;100.00
39699;BME280;25372;50.582;12.250;2024-02-26T06:35:21;98472.94;;;-1.20;100.00
39699;BME280;25372;50.582;12.250;2024-02-26T06:45:42;98480.38;;;-0.88;100.00
39699;BME280;25372;50.582;12.250;2024-02-26T06:56:05;98465.97;;;-0.72;100.00
39699;BME280;25372;50.582;12.250;2024-02-26T07:06:26;98465.50;;;-0.16;100.00
39699;BME280;25372;50.582;12.250;2024-02-26T07:16:49;98483.50;;;0.86;100.00
39699;BME280;25372;50.582;12.250;2024-02-26T07:27:10;98477.38;;;1.45;100.00
39699;BME280;25372;50.582;12.250;2024-02-26T07:37:33;98479.28;;;1.41;100.00
39699;BME280;25372;50.582;12.250;2024-02-26T07:47:54;98483.78;;;1.55;100.00
39699;BME280;25372;50.582;12.250;2024-02-26T07:58:16;98479.03;;;2.00;100.00
39699;BME280;25372;50.582;12.250;2024-02-26T08:08:37;98478.31;;;2.32;100.00
39699;BME280;25372;50.582;12.250;2024-02-26T08:19:00;98489.53;;;2.66;100.00
39699;BME280;25372;50.582;12.250;2024-02-26T08:29:20;98491.31;;;2.98;100.00
39699;BME280;25372;50.582;12.250;2024-02-26T08:39:43;98489.06;;;3.56;100.00
39699;BME280;25372;50.582;12.250;2024-02-26T08:50:06;98498.19;;;3.94;100.00
39699;BME280;25372;50.582;12.250;2024-02-26T09:00:30;98501.34;;;4.44;97.37
39699;BME280;25372;50.582;12.250;2024-02-26T09:10:51;98484.81;;;4.74;99.25
39699;BME280;25372;50.582;12.250;2024-02-26T09:21:14;98488.56;;;5.26;91.67
39699;BME280;25372;50.582;12.250;2024-02-26T09:31:38;98487.34;;;5.59;89.90
39699;BME280;25372;50.582;12.250;2024-02-26T09:42:04;98502.16;;;5.99;90.44
39699;BME280;25372;50.582;12.250;2024-02-26T09:52:28;98499.63;;;6.64;85.94
39699;BME280;25372;50.582;12.250;2024-02-26T10:02:54;98502.31;;;6.89;86.35
39699;BME280;25372;50.582;12.250;2024-02-26T10:13:16;98515.22;;;7.40;80.71
39699;BME280;25372;50.582;12.250;2024-02-26T10:23:41;98509.13;;;7.77;79.91
39699;BME280;25372;50.582;12.250;2024-02-26T10:34:03;98515.56;;;7.84;76.69
39699;BME280;25372;50.582;12.250;2024-02-26T10:44:25;98520.31;;;8.15;75.94
39699;BME280;25372;50.582;12.250;2024-02-26T10:54:47;98509.19;;;8.00;75.56
39699;BME280;25372;50.582;12.250;2024-02-26T11:05:11;98513.41;;;8.14;74.19
39699;BME280;25372;50.582;12.250;2024-02-26T11:15:32;98525.84;;;8.46;72.74
39699;BME280;25372;50.582;12.250;2024-02-26T11:25:57;98513.38;;;8.50;73.12
39699;BME280;25372;50.582;12.250;2024-02-26T11:36:19;98511.03;;;9.27;69.55
39699;BME280;25372;50.582;12.250;2024-02-26T11:46:42;98506.03;;;9.35;69.81
39699;BME280;25372;50.582;12.250;2024-02-26T11:57:04;98499.97;;;9.23;69.91
39699;BME280;25372;50.582;12.250;2024-02-26T12:07:43;98509.38;;;9.26;68.86
39699;BME280;25372;50.582;12.250;2024-02-26T12:18:07;98523.78;;;9.20;69.52
39699;BME280;25372;50.582;12.250;2024-02-26T12:28:31;98531.72;;;9.85;65.96
39699;BME280;25372;50.582;12.250;2024-02-26T12:38:52;98526.47;;;9.41;66.59
39699;BME280;25372;50.582;12.250;2024-02-26T12:49:15;98524.34;;;9.46;67.28
39699;BME280;25372;50.582;12.250;2024-02-26T12:59:37;98527.59;;;9.71;66.50
39699;BME280;25372;50.582;12.250;2024-02-26T13:10:00;98532.78;;;9.38;66.75
39699;BME280;25372;50.582;12.250;2024-02-26T13:20:26;98537.38;;;10.02;65.54
39699;BME280;25372;50.582;12.250;2024-02-26T13:30:53;98550.47;;;10.02;66.79
39699;BME280;25372;50.582;12.250;2024-02-26T13:41:16;98552.78;;;10.16;63.51
39699;BME280;25372;50.582;12.250;2024-02-26T13:51:39;98558.88;;;9.84;65.13
39699;BME280;25372;50.582;12.250;2024-02-26T14:02:00;98570.19;;;9.52;67.17
39699;BME280;25372;50.582;12.250;2024-02-26T14:12:22;98581.00;;;9.59;65.97
39699;BME280;25372;50.582;12.250;2024-02-26T14:22:43;98583.81;;;9.67;64.95
39699;BME280;25372;50.582;12.250;2024-02-26T14:33:05;98602.69;;;9.49;65.55
39699;BME280;25372;50.582;12.250;2024-02-26T14:43:27;98614.34;;;9.45;66.96
39699;BME280;25372;50.582;12.250;2024-02-26T14:53:49;98634.97;;;9.38;68.00
39699;BME280;25372;50.582;12.250;2024-02-26T15:04:10;98650.09;;;9.23;67.46
39699;BME280;25372;50.582;12.250;2024-02-26T15:14:32;98635.91;;;9.26;66.73
39699;BME280;25372;50.582;12.250;2024-02-26T15:24:54;98634.31;;;8.89;69.03
39699;BME280;25372;50.582;12.250;2024-02-26T15:35:17;98639.03;;;8.61;71.49
39699;BME280;25372;50.582;12.250;2024-02-26T15:45:38;98656.56;;;8.48;71.76
39699;BME280;25372;50.582;12.250;2024-02-26T15:56:00;98665.13;;;8.25;72.60
39699;BME280;25372;50.582;12.250;2024-02-26T16:06:26;98677.06;;;7.92;74.12
39699;BME280;25372;50.582;12.250;2024-02-26T16:16:54;98677.88;;;7.55;75.88
39699;BME280;25372;50.582;12.250;2024-02-26T16:27:17;98686.81;;;7.14;77.37
39699;BME280;25372;50.582;12.250;2024-02-26T16:37:40;98708.38;;;6.77;79.69
39699;BME280;25372;50.582;12.250;2024-02-26T16:48:00;98720.97;;;6.70;80.15
39699;BME280;25372;50.582;12.250;2024-02-26T16:58:24;98742.59;;;6.72;80.23
39699;BME280;25372;50.582;12.250;2024-02-26T17:08:45;98755.97;;;6.81;79.96
39699;BME280;25372;50.582;12.250;2024-02-26T17:19:08;98778.81;;;6.77;80.62
39699;BME280;25372;50.582;12.250;2024-02-26T17:29:29;98786.72;;;6.76;80.99
39699;BME280;25372;50.582;12.250;2024-02-26T17:39:51;98801.72;;;6.59;81.68
39699;BME280;25372;50.582;12.250;2024-02-26T17:50:13;98802.88;;;6.40;81.33
39699;BME280;25372;50.582;12.250;2024-02-26T18:00:36;98805.50;;;6.26;82.60
39699;BME280;25372;50.582;12.250;2024-02-26T18:10:57;98821.41;;;6.07;83.65
39699;BME280;25372;50.582;12.250;2024-02-26T18:21:20;98816.38;;;6.18;84.89
39699;BME280;25372;50.582;12.250;2024-02-26T18:31:41;98817.94;;;5.92;85.09
39699;BME280;25372;50.582;12.250;2024-02-26T18:42:04;98824.41;;;5.41;87.33
39699;BME280;25372;50.582;12.250;2024-02-26T18:52:27;98833.75;;;4.98;88.76
39699;BME280;25372;50.582;12.250;2024-02-26T19:02:49;98846.78;;;4.66;90.62
39699;BME280;25372;50.582;12.250;2024-02-26T19:13:10;98855.13;;;4.07;92.60
39699;BME280;25372;50.582;12.250;2024-02-26T19:23:33;98854.13;;;4.10;93.33
39699;BME280;25372;50.582;12.250;2024-02-26T19:33:56;98854.13;;;3.58;96.02
39699;BME280;25372;50.582;12.250;2024-02-26T19:44:19;98856.09;;;3.35;97.54
39699;BME280;25372;50.582;12.250;2024-02-26T19:54:40;98869.47;;;3.28;98.00
39699;BME280;25372;50.582;12.250;2024-02-26T20:05:04;98887.03;;;3.22;98.54
39699;BME280;25372;50.582;12.250;2024-02-26T20:15:25;98913.41;;;3.13;99.70
39699;BME280;25372;50.582;12.250;2024-02-26T20:25:48;98905.94;;;3.25;100.00
39699;BME280;25372;50.582;12.250;2024-02-26T20:36:09;98941.03;;;3.69;98.85
39699;BME280;25372;50.582;12.250;2024-02-26T20:46:31;98955.56;;;3.73;98.12
39699;BME280;25372;50.582;12.250;2024-02-26T20:56:52;98970.63;;;3.47;99.38
39699;BME280;25372;50.582;12.250;2024-02-26T21:07:15;98969.91;;;3.26;100.00
39699;BME280;25372;50.582;12.250;2024-02-26T21:17:37;98992.16;;;3.12;100.00
39699;BME280;25372;50.582;12.250;2024-02-26T21:27:59;98997.06;;;3.18;100.00
39699;BME280;25372;50.582;12.250;2024-02-26T21:38:22;98996.84;;;3.60;100.00
39699;BME280;25372;50.582;12.250;2024-02-26T21:48:44;98993.66;;;3.35;100.00
39699;BME280;25372;50.582;12.250;2024-02-26T21:59:05;99023.63;;;3.43;100.00
39699;BME280;25372;50.582;12.250;2024-02-26T22:09:28;99041.66;;;3.65;100.00
39699;BME280;25372;50.582;12.250;2024-02-26T22:19:49;99047.59;;;3.67;100.00
39699;BME280;25372;50.582;12.250;2024-02-26T22:30:12;99038.94;;;3.67;100.00
39699;BME280;25372;50.582;12.250;2024-02-26T22:40:34;99069.63;;;3.77;100.00
39699;BME280;25372;50.582;12.250;2024-02-26T22:50:56;99043.66;;;3.77;100.00
39699;BME280;25372;50.582;12.250;2024-02-26T23:01:18;99069.56;;;3.60;100.00
39699;BME280;25372;50.582;12.250;2024-02-26T23:11:40;99078.63;;;3.51;100.00
39699;BME280;25372;50.582;12.250;2024-02-26T23:22:01;99083.84;;;3.32;100.00
39699;BME280;25372;50.582;12.250;2024-02-26T23:32:23;99076.28;;;3.64;100.00
39699;BME280;25372;50.582;12.250;2024-02-26T23:42:45;99088.94;;;3.33;100.00
39699;BME280;25372;50.582;12.250;2024-02-26T23:53:07;99087.75;;;3.41;100.00
